Time;durP1;ratioP1;P1;durP2;ratioP2;P2;SDS_P1;SDS_P2;PMS_P1;PMS_P2;Temp;Humidity;BMP_temperature;BMP_pressure;BME280_temperature;BME280_humidity;BME280_pressure;Samples;Min_cycle;Max_cycle;Signal;HPM_P1;HPM_P2
2023/01/26 00:00:30;;;;;;;9.47;6.40;;;;;;;;;;5052222;28;20482;-72
2023/01/26 00:02:56;;;;;;;8.13;5.90;;;;;;;;;;5052148;28;20041;-72
2023/01/26 00:05:22;;;;;;;10.13;6.33;;;;;;;;;;5052049;28;20049;-72
2023/01/26 00:07:48;;;;;;;11.20;6.97;;;;;;;;;;5051794;28;20529;-72
2023/01/26 00:10:15;;;;;;;9.83;5.97;;;;;;;;;;5051862;28;20037;-72
2023/01/26 00:12:41;;;;;;;10.37;6.67;;;;;;;;;;5051866;28;20037;-72
2023/01/26 00:15:07;;;;;;;10.47;6.60;;;;;;;;;;5051875;28;20036;-72
2023/01/26 00:17:33;;;;;;;10.07;6.43;;;;;;;;;;5052115;28;20048;-72
2023/01/26 00:19:59;;;;;;;10.50;6.67;;;;;;;;;;5051689;28;20029;-72
2023/01/26 00:22:26;;;;;;;10.70;7.00;;;;;;;;;;5052059;28;20048;-72
2023/01/26 00:24:52;;;;;;;10.60;6.93;;;;;;;;;;5051951;28;20123;-71
2023/01/26 00:27:18;;;;;;;10.67;6.83;;;;;;;;;;5052119;28;20498;-72
2023/01/26 00:29:44;;;;;;;9.93;6.73;;;;;;;;;;5053111;28;20079;-72
2023/01/26 00:32:11;;;;;;;12.23;6.97;;;;;;;;;;5055556;28;20037;-72
2023/01/26 00:34:37;;;;;;;11.27;6.83;;;;;;;;;;5051775;28;20076;-72
2023/01/26 00:37:03;;;;;;;11.13;7.80;;;;;;;;;;5035716;28;20088;-72
2023/01/26 00:39:29;;;;;;;23.77;12.07;;;;;;;;;;5035322;28;20034;-72
2023/01/26 00:42:10;;;;;;;23.93;11.23;;;;;;;;;;5035291;28;20117;-71
2023/01/26 00:44:40;;;;;;;17.57;9.60;;;;;;;;;;5035206;28;20073;-71
2023/01/26 00:47:07;;;;;;;16.90;8.87;;;;;;;;;;5035219;28;20048;-71
2023/01/26 00:49:33;;;;;;;16.80;9.53;;;;;;;;;;5035230;28;20030;-72
2023/01/26 00:51:59;;;;;;;14.43;8.63;;;;;;;;;;5035346;28;20037;-72
2023/01/26 00:54:26;;;;;;;16.57;8.80;;;;;;;;;;5035316;28;20084;-71
2023/01/26 00:56:52;;;;;;;16.10;8.63;;;;;;;;;;5035002;28;20140;-72
2023/01/26 00:59:18;;;;;;;12.80;7.97;;;;;;;;;;5035109;28;20054;-72
2023/01/26 01:01:44;;;;;;;12.77;8.37;;;;;;;;;;5035135;28;20041;-72
2023/01/26 01:04:10;;;;;;;14.33;8.30;;;;;;;;;;5035110;28;20046;-71
2023/01/26 01:06:36;;;;;;;12.47;7.50;;;;;;;;;;5035281;28;20042;-72
2023/01/26 01:09:03;;;;;;;12.27;7.27;;;;;;;;;;5035141;28;20115;-72
2023/01/26 01:11:29;;;;;;;12.97;7.33;;;;;;;;;;5034888;28;20187;-72
2023/01/26 01:13:55;;;;;;;10.90;7.00;;;;;;;;;;5035103;28;20494;-72
2023/01/26 01:16:21;;;;;;;12.93;7.30;;;;;;;;;;5035093;28;20091;-72
2023/01/26 01:18:47;;;;;;;13.50;7.97;;;;;;;;;;5034935;28;20033;-72
2023/01/26 01:21:15;;;;;;;10.83;6.80;;;;;;;;;;5034869;28;20029;-72
2023/01/26 01:23:41;;;;;;;10.53;6.97;;;;;;;;;;5034467;28;20033;-72
2023/01/26 01:26:08;;;;;;;10.83;6.70;;;;;;;;;;5034395;28;20102;-72
2023/01/26 01:28:35;;;;;;;10.87;6.87;;;;;;;;;;5034577;28;20112;-72
2023/01/26 01:31:05;;;;;;;10.03;6.43;;;;;;;;;;5034433;28;20042;-71
2023/01/26 01:33:31;;;;;;;11.63;7.20;;;;;;;;;;5034436;28;20033;-72
2023/01/26 01:35:57;;;;;;;10.10;7.17;;;;;;;;;;5034347;28;20056;-72
2023/01/26 01:38:24;;;;;;;10.40;6.73;;;;;;;;;;5034379;28;20093;-72
2023/01/26 01:40:50;;;;;;;9.90;6.67;;;;;;;;;;5033654;28;20458;-72
2023/01/26 01:43:16;;;;;;;11.80;7.43;;;;;;;;;;5034418;28;20060;-72
2023/01/26 01:45:44;;;;;;;10.33;6.97;;;;;;;;;;5034229;28;20056;-72
2023/01/26 01:48:17;;;;;;;10.50;6.73;;;;;;;;;;5034271;28;20116;-72
2023/01/26 01:50:44;;;;;;;11.77;6.87;;;;;;;;;;5034258;28;20048;-71
2023/01/26 01:53:12;;;;;;;10.80;6.20;;;;;;;;;;5034138;28;20034;-72
2023/01/26 01:55:38;;;;;;;9.90;6.30;;;;;;;;;;5034018;28;20120;-72
2023/01/26 01:58:05;;;;;;;11.23;7.10;;;;;;;;;;5032806;28;20121;-72
2023/01/26 02:00:31;;;;;;;10.23;6.43;;;;;;;;;;5031309;28;20044;-72
2023/01/26 02:03:09;;;;;;;10.83;6.97;;;;;;;;;;5031284;28;20036;-72
2023/01/26 02:05:40;;;;;;;11.57;7.00;;;;;;;;;;5032810;28;20099;-72
2023/01/26 02:08:08;;;;;;;10.37;6.33;;;;;;;;;;5033454;28;20610;-72
2023/01/26 02:10:35;;;;;;;11.03;6.30;;;;;;;;;;5033842;28;20040;-72
2023/01/26 02:13:02;;;;;;;10.33;6.80;;;;;;;;;;5033694;28;20116;-72
2023/01/26 02:15:29;;;;;;;10.90;6.97;;;;;;;;;;5033446;28;20034;-72
2023/01/26 02:17:56;;;;;;;13.33;7.00;;;;;;;;;;5033698;28;20053;-71
2023/01/26 02:20:22;;;;;;;12.20;6.77;;;;;;;;;;5033263;28;20037;-72
2023/01/26 02:22:48;;;;;;;11.27;6.77;;;;;;;;;;5033545;28;20034;-72
2023/01/26 02:25:19;;;;;;;10.37;6.60;;;;;;;;;;5033285;28;20048;-71
2023/01/26 02:27:45;;;;;;;10.97;7.07;;;;;;;;;;5033087;28;20041;-72
2023/01/26 02:30:12;;;;;;;10.17;6.90;;;;;;;;;;5033293;28;20120;-72
2023/01/26 02:32:38;;;;;;;10.67;6.43;;;;;;;;;;5033121;28;20043;-72
2023/01/26 02:35:05;;;;;;;10.20;6.50;;;;;;;;;;5032933;28;20479;-72
2023/01/26 02:37:31;;;;;;;11.17;7.00;;;;;;;;;;5033217;28;20108;-72
2023/01/26 02:40:03;;;;;;;11.67;6.73;;;;;;;;;;5033638;28;20457;-72
2023/01/26 02:42:38;;;;;;;10.68;6.90;;;;;;;;;;5033124;28;20037;-71
2023/01/26 02:45:05;;;;;;;12.53;7.00;;;;;;;;;;5032971;28;20506;-72
2023/01/26 02:47:31;;;;;;;10.73;7.17;;;;;;;;;;5033455;28;20072;-72
2023/01/26 02:49:59;;;;;;;12.33;6.70;;;;;;;;;;5033416;28;20038;-72
2023/01/26 02:52:26;;;;;;;11.97;6.90;;;;;;;;;;5032354;28;20033;-72
2023/01/26 02:57:37;;;;;;;11.00;7.20;;;;;;;;;;5032976;28;20048;-72
2023/01/26 03:00:05;;;;;;;11.03;6.93;;;;;;;;;;5033110;28;20573;-71
2023/01/26 03:02:31;;;;;;;12.57;7.50;;;;;;;;;;5033131;28;20038;-72
2023/01/26 03:04:57;;;;;;;12.17;7.00;;;;;;;;;;5032902;28;20121;-72
2023/01/26 03:07:23;;;;;;;10.97;7.30;;;;;;;;;;5032777;28;20030;-71
2023/01/26 03:09:49;;;;;;;10.50;7.60;;;;;;;;;;5032703;28;20080;-72
2023/01/26 03:12:15;;;;;;;11.97;7.23;;;;;;;;;;5032599;28;20033;-72
2023/01/26 03:14:41;;;;;;;14.63;7.33;;;;;;;;;;5032928;28;20091;-72
2023/01/26 03:17:07;;;;;;;15.30;7.63;;;;;;;;;;5032832;28;20483;-72
2023/01/26 03:27:48;;;;;;;11.27;6.47;;;;;;;;;;5032378;28;20450;-72
2023/01/26 03:30:15;;;;;;;11.83;7.33;;;;;;;;;;5032417;28;20038;-72
2023/01/26 03:32:42;;;;;;;11.03;6.87;;;;;;;;;;5032584;28;20037;-72
2023/01/26 03:35:13;;;;;;;11.33;7.03;;;;;;;;;;5032291;28;20045;-71
2023/01/26 03:37:42;;;;;;;15.07;7.10;;;;;;;;;;5032442;28;20423;-71
2023/01/26 03:56:36;;;;;;;18.27;7.83;;;;;;;;;;5032246;28;20541;-71
2023/01/26 03:59:07;;;;;;;25.20;7.10;;;;;;;;;;5032245;28;20057;-71
2023/01/26 04:01:40;;;;;;;15.07;7.87;;;;;;;;;;5032299;28;20021;-72
2023/01/26 04:09:40;;;;;;;14.17;7.50;;;;;;;;;;5036503;28;20044;-72
2023/01/26 04:12:09;;;;;;;16.60;7.77;;;;;;;;;;5036080;28;20108;-72
2023/01/26 04:22:50;;;;;;;11.20;7.33;;;;;;;;;;5036060;28;20649;-71
2023/01/26 04:25:19;;;;;;;11.17;6.93;;;;;;;;;;5035490;28;20076;-72
2023/01/26 04:27:45;;;;;;;12.83;8.03;;;;;;;;;;5035745;28;20080;-71
2023/01/26 04:30:12;;;;;;;12.60;7.90;;;;;;;;;;5035731;28;20072;-71
2023/01/26 04:32:39;;;;;;;12.63;7.00;;;;;;;;;;5035630;28;20029;-72
2023/01/26 04:35:06;;;;;;;14.27;7.67;;;;;;;;;;5035681;28;20117;-71
2023/01/26 04:37:32;;;;;;;9.70;6.60;;;;;;;;;;5035423;28;20087;-71
2023/01/26 04:39:58;;;;;;;11.97;7.43;;;;;;;;;;5035798;28;20037;-71
2023/01/26 04:42:24;;;;;;;12.63;7.73;;;;;;;;;;5035450;28;20048;-71
2023/01/26 04:44:51;;;;;;;11.67;7.57;;;;;;;;;;5035230;28;20541;-72
2023/01/26 04:47:17;;;;;;;11.43;6.90;;;;;;;;;;5035322;28;20040;-71
2023/01/26 04:49:44;;;;;;;11.87;7.13;;;;;;;;;;5035553;28;20427;-72
2023/01/26 04:52:10;;;;;;;11.77;7.30;;;;;;;;;;5035230;28;20025;-71
2023/01/26 04:54:36;;;;;;;10.90;6.83;;;;;;;;;;5035172;28;20041;-71
2023/01/26 04:57:02;;;;;;;12.33;7.47;;;;;;;;;;5035315;28;20029;-71
2023/01/26 04:59:28;;;;;;;14.57;8.40;;;;;;;;;;5034694;28;20507;-71
2023/01/26 05:01:55;;;;;;;12.70;8.27;;;;;;;;;;5034833;28;20069;-72
2023/01/26 05:04:21;;;;;;;13.80;9.33;;;;;;;;;;5035089;28;20029;-71
2023/01/26 05:06:47;;;;;;;15.90;9.60;;;;;;;;;;5034756;28;20124;-72
2023/01/26 05:09:13;;;;;;;17.20;10.37;;;;;;;;;;5034782;28;20037;-71
2023/01/26 05:11:39;;;;;;;12.07;8.10;;;;;;;;;;5034976;28;20065;-72
2023/01/26 05:14:05;;;;;;;18.00;8.83;;;;;;;;;;5035012;28;20029;-71
2023/01/26 05:16:31;;;;;;;13.97;8.73;;;;;;;;;;5033954;28;20087;-71
2023/01/26 05:18:57;;;;;;;12.37;7.83;;;;;;;;;;5035059;28;20072;-71
2023/01/26 05:21:26;;;;;;;12.60;8.17;;;;;;;;;;5034785;28;20475;-72
2023/01/26 05:23:52;;;;;;;15.13;8.17;;;;;;;;;;5035137;28;20046;-71
2023/01/26 05:26:18;;;;;;;19.27;8.40;;;;;;;;;;5034801;28;20053;-71
2023/01/26 05:28:44;;;;;;;15.23;8.47;;;;;;;;;;5034721;28;20033;-71
2023/01/26 05:31:10;;;;;;;12.47;8.03;;;;;;;;;;5034535;28;20038;-72
2023/01/26 05:33:36;;;;;;;14.03;8.27;;;;;;;;;;5034900;28;20119;-72
2023/01/26 05:36:04;;;;;;;17.13;8.33;;;;;;;;;;5034704;28;20087;-72
2023/01/26 05:38:30;;;;;;;14.77;8.37;;;;;;;;;;5034542;28;20034;-71
2023/01/26 05:40:56;;;;;;;15.97;9.13;;;;;;;;;;5034533;28;20117;-72
2023/01/26 05:43:23;;;;;;;14.13;8.10;;;;;;;;;;5034432;28;20041;-71
2023/01/26 05:45:49;;;;;;;15.07;8.73;;;;;;;;;;5034013;28;20057;-72
2023/01/26 05:48:15;;;;;;;14.40;8.03;;;;;;;;;;5034285;28;20104;-71
2023/01/26 05:50:41;;;;;;;14.67;8.33;;;;;;;;;;5034187;28;20034;-71
2023/01/26 05:53:07;;;;;;;15.43;8.23;;;;;;;;;;5034073;28;20057;-72
2023/01/26 05:55:33;;;;;;;14.30;7.93;;;;;;;;;;5034109;28;20112;-72
2023/01/26 05:57:59;;;;;;;11.87;7.87;;;;;;;;;;5034076;28;20046;-72
2023/01/26 06:00:25;;;;;;;14.97;8.23;;;;;;;;;;5034559;28;20061;-71
2023/01/26 06:02:51;;;;;;;12.13;7.93;;;;;;;;;;5034654;28;20038;-71
2023/01/26 06:05:17;;;;;;;16.27;7.97;;;;;;;;;;5033670;28;20050;-71
2023/01/26 06:07:44;;;;;;;13.80;7.63;;;;;;;;;;5033869;28;20087;-72
2023/01/26 06:10:10;;;;;;;12.80;7.50;;;;;;;;;;5034081;28;20082;-71
2023/01/26 06:12:37;;;;;;;11.63;7.67;;;;;;;;;;5033853;28;20029;-72
2023/01/26 06:15:04;;;;;;;16.13;9.27;;;;;;;;;;5033466;28;20119;-71
2023/01/26 06:17:30;;;;;;;14.33;8.10;;;;;;;;;;5033541;28;20037;-71
2023/01/26 06:19:56;;;;;;;17.10;9.20;;;;;;;;;;5033419;28;20479;-72
2023/01/26 06:22:22;;;;;;;13.47;8.33;;;;;;;;;;5033661;28;20069;-72
2023/01/26 06:24:49;;;;;;;16.43;7.93;;;;;;;;;;5033589;28;20041;-71
2023/01/26 06:27:17;;;;;;;13.23;8.00;;;;;;;;;;5033568;28;20113;-71
2023/01/26 06:29:44;;;;;;;15.00;8.67;;;;;;;;;;5033195;28;20041;-71
2023/01/26 06:32:11;;;;;;;13.83;8.30;;;;;;;;;;5033487;28;20021;-71
2023/01/26 06:34:37;;;;;;;15.90;9.20;;;;;;;;;;5033195;28;20038;-71
2023/01/26 06:37:03;;;;;;;14.13;7.57;;;;;;;;;;5033049;28;20036;-72
2023/01/26 06:39:29;;;;;;;12.87;8.33;;;;;;;;;;5033548;28;20088;-72
2023/01/26 06:41:55;;;;;;;16.23;8.63;;;;;;;;;;5033439;28;20041;-72
2023/01/26 06:44:21;;;;;;;12.63;7.90;;;;;;;;;;5033186;28;20037;-72
2023/01/26 06:46:47;;;;;;;14.47;7.80;;;;;;;;;;5033072;28;20475;-70
2023/01/26 06:49:15;;;;;;;19.37;8.00;;;;;;;;;;5033419;28;20038;-72
2023/01/26 06:51:56;;;;;;;46.43;23.53;;;;;;;;;;5032865;28;20040;-71
2023/01/26 06:54:22;;;;;;;31.00;15.87;;;;;;;;;;5032849;28;20037;-72
2023/01/26 06:56:48;;;;;;;39.43;20.87;;;;;;;;;;5032807;28;20041;-72
2023/01/26 06:59:15;;;;;;;24.70;14.70;;;;;;;;;;5032682;28;20065;-71
2023/01/26 07:01:42;;;;;;;26.07;13.20;;;;;;;;;;5032825;28;20033;-72
2023/01/26 07:04:08;;;;;;;22.37;14.03;;;;;;;;;;5032488;28;20030;-72
2023/01/26 07:06:34;;;;;;;21.20;11.40;;;;;;;;;;5032369;28;20080;-72
2023/01/26 07:09:01;;;;;;;23.90;11.27;;;;;;;;;;5032254;28;20045;-72
2023/01/26 07:11:29;;;;;;;15.33;9.87;;;;;;;;;;5032993;28;20057;-72
2023/01/26 07:13:55;;;;;;;15.93;9.20;;;;;;;;;;5032669;28;20030;-72
2023/01/26 07:16:21;;;;;;;19.47;12.33;;;;;;;;;;5033014;28;20056;-71
2023/01/26 07:18:48;;;;;;;21.80;12.40;;;;;;;;;;5032832;28;20037;-72
2023/01/26 07:21:15;;;;;;;18.20;9.63;;;;;;;;;;5032483;28;20134;-72
2023/01/26 07:23:41;;;;;;;15.50;9.70;;;;;;;;;;5032852;28;20088;-71
2023/01/26 07:26:07;;;;;;;15.93;8.63;;;;;;;;;;5032558;28;20084;-72
2023/01/26 07:28:33;;;;;;;16.80;8.13;;;;;;;;;;5032886;28;20113;-72
2023/01/26 07:31:00;;;;;;;41.20;19.83;;;;;;;;;;5032934;28;20553;-72
2023/01/26 07:33:26;;;;;;;28.60;15.87;;;;;;;;;;5031485;28;20395;-72
2023/01/26 07:35:53;;;;;;;24.20;13.07;;;;;;;;;;5032648;28;20048;-72
2023/01/26 07:38:19;;;;;;;26.70;12.93;;;;;;;;;;5032065;28;20037;-71
2023/01/26 07:40:45;;;;;;;30.40;12.33;;;;;;;;;;5032527;28;20056;-71
2023/01/26 07:43:11;;;;;;;21.23;10.23;;;;;;;;;;5032597;28;20111;-72
2023/01/26 07:45:37;;;;;;;17.13;8.90;;;;;;;;;;5032675;28;20056;-76
2023/01/26 07:48:03;;;;;;;14.90;9.10;;;;;;;;;;5032489;28;20092;-71
2023/01/26 07:50:29;;;;;;;30.50;16.20;;;;;;;;;;5032512;28;20113;-72
2023/01/26 07:52:56;;;;;;;24.47;15.00;;;;;;;;;;5032439;28;20041;-72
2023/01/26 07:55:24;;;;;;;27.83;17.77;;;;;;;;;;5032515;28;20041;-72
2023/01/26 07:57:50;;;;;;;21.33;12.13;;;;;;;;;;5031630;28;20033;-72
2023/01/26 08:00:17;;;;;;;19.57;10.17;;;;;;;;;;5031321;28;20092;-72
2023/01/26 08:02:43;;;;;;;19.13;12.13;;;;;;;;;;5030836;28;20045;-72
2023/01/26 08:05:09;;;;;;;11.73;7.60;;;;;;;;;;5032150;28;20041;-72
2023/01/26 08:07:36;;;;;;;14.17;7.57;;;;;;;;;;5032344;28;20046;-72
2023/01/26 08:10:02;;;;;;;11.13;6.93;;;;;;;;;;5032509;28;20029;-72
2023/01/26 08:12:29;;;;;;;11.50;7.00;;;;;;;;;;5032394;28;20033;-72
2023/01/26 08:14:55;;;;;;;9.50;6.60;;;;;;;;;;5032077;28;20572;-72
2023/01/26 08:17:21;;;;;;;11.57;7.23;;;;;;;;;;5032222;28;20041;-72
2023/01/26 08:19:47;;;;;;;12.87;7.17;;;;;;;;;;5032465;28;20037;-72
2023/01/26 08:22:13;;;;;;;13.33;8.23;;;;;;;;;;5032457;28;20034;-72
2023/01/26 08:24:39;;;;;;;10.83;7.00;;;;;;;;;;5032423;28;20487;-72
2023/01/26 08:27:05;;;;;;;11.70;7.60;;;;;;;;;;5032285;28;20479;-72
2023/01/26 08:29:31;;;;;;;11.40;6.73;;;;;;;;;;5032178;28;20108;-72
2023/01/26 08:31:57;;;;;;;11.40;6.73;;;;;;;;;;5032110;28;20036;-72
2023/01/26 08:34:25;;;;;;;14.23;6.57;;;;;;;;;;5032331;28;20057;-72
2023/01/26 08:36:51;;;;;;;9.97;6.03;;;;;;;;;;5032249;28;20022;-72
2023/01/26 08:39:17;;;;;;;10.60;6.00;;;;;;;;;;5032037;28;20092;-72
2023/01/26 08:41:43;;;;;;;14.73;6.40;;;;;;;;;;5032084;28;20037;-72
2023/01/26 08:44:10;;;;;;;9.63;6.17;;;;;;;;;;5032133;28;20091;-72
2023/01/26 08:46:36;;;;;;;11.93;6.67;;;;;;;;;;5032192;28;20044;-72
2023/01/26 08:49:02;;;;;;;11.33;6.13;;;;;;;;;;5032361;28;20038;-72
2023/01/26 08:51:28;;;;;;;15.10;6.00;;;;;;;;;;5034346;28;20087;-72
2023/01/26 08:53:54;;;;;;;8.60;5.27;;;;;;;;;;5035497;28;20039;-72
2023/01/26 08:56:20;;;;;;;9.53;5.50;;;;;;;;;;5035235;28;20463;-72
2023/01/26 08:58:47;;;;;;;8.57;5.67;;;;;;;;;;5035240;28;20495;-72
2023/01/26 09:01:14;;;;;;;12.07;5.73;;;;;;;;;;5034337;28;20068;-72
2023/01/26 09:03:41;;;;;;;9.37;5.63;;;;;;;;;;5034235;28;20030;-72
2023/01/26 09:06:08;;;;;;;12.43;6.53;;;;;;;;;;5035237;28;20204;-72
2023/01/26 09:08:35;;;;;;;10.40;6.17;;;;;;;;;;5034991;28;20061;-72
2023/01/26 09:11:01;;;;;;;10.27;6.03;;;;;;;;;;5035230;28;20499;-72
2023/01/26 09:13:27;;;;;;;7.53;4.80;;;;;;;;;;5035265;28;20057;-72
2023/01/26 09:15:53;;;;;;;8.10;5.53;;;;;;;;;;5035205;28;20109;-72
2023/01/26 09:18:19;;;;;;;8.33;5.00;;;;;;;;;;5035346;28;20034;-72
2023/01/26 09:20:46;;;;;;;12.00;5.30;;;;;;;;;;5035080;28;20044;-72
2023/01/26 09:23:12;;;;;;;7.23;4.83;;;;;;;;;;5035071;28;20080;-72
2023/01/26 09:25:39;;;;;;;8.33;4.60;;;;;;;;;;5034873;28;20041;-72
2023/01/26 09:28:05;;;;;;;9.20;4.57;;;;;;;;;;5034912;28;20037;-72
2023/01/26 09:30:31;;;;;;;9.83;4.80;;;;;;;;;;5034999;28;20036;-72
2023/01/26 09:33:00;;;;;;;7.97;4.70;;;;;;;;;;5035196;28;20422;-72
2023/01/26 09:35:27;;;;;;;8.57;4.80;;;;;;;;;;5034870;28;20509;-72
2023/01/26 09:37:53;;;;;;;9.43;4.47;;;;;;;;;;5035192;28;20112;-72
2023/01/26 09:40:30;;;;;;;21.57;11.73;;;;;;;;;;5034984;28;20360;-72
2023/01/26 09:43:00;;;;;;;7.63;5.00;;;;;;;;;;5034950;28;20103;-72
2023/01/26 09:45:29;;;;;;;7.43;4.50;;;;;;;;;;5034908;28;20049;-73
2023/01/26 09:48:04;;;;;;;7.77;4.40;;;;;;;;;;5034488;28;20052;-72
2023/01/26 09:50:32;;;;;;;6.93;4.10;;;;;;;;;;5033829;28;20052;-73
2023/01/26 09:53:01;;;;;;;6.87;4.37;;;;;;;;;;5034276;28;20030;-72
2023/01/26 09:55:29;;;;;;;8.77;4.50;;;;;;;;;;5032833;28;20091;-72
2023/01/26 09:57:57;;;;;;;8.40;4.40;;;;;;;;;;5034045;28;20041;-72
2023/01/26 10:00:38;;;;;;;7.03;4.70;;;;;;;;;;5034002;28;20395;-72
2023/01/26 10:03:18;;;;;;;7.03;4.60;;;;;;;;;;5033460;28;20034;-72
2023/01/26 10:05:57;;;;;;;9.50;4.47;;;;;;;;;;5033811;28;20399;-72
2023/01/26 10:08:25;;;;;;;8.07;4.53;;;;;;;;;;5031765;28;20100;-72
2023/01/26 10:10:57;;;;;;;8.07;4.63;;;;;;;;;;5034157;28;20021;-73
2023/01/26 10:13:23;;;;;;;7.20;4.77;;;;;;;;;;5034013;28;20112;-72
2023/01/26 10:15:52;;;;;;;9.37;4.63;;;;;;;;;;5034045;28;20033;-72
2023/01/26 10:18:21;;;;;;;10.67;4.60;;;;;;;;;;5034069;28;20041;-72
2023/01/26 10:20:52;;;;;;;7.70;4.83;;;;;;;;;;5033842;28;20108;-72
2023/01/26 10:23:29;;;;;;;8.30;5.30;;;;;;;;;;5034046;28;20430;-73
2023/01/26 10:26:11;;;;;;;9.33;5.77;;;;;;;;;;5033984;28;20041;-73
2023/01/26 10:28:37;;;;;;;13.53;5.57;;;;;;;;;;5033808;28;20033;-73
2023/01/26 10:31:04;;;;;;;7.17;5.13;;;;;;;;;;5033698;28;20025;-70
2023/01/26 10:33:34;;;;;;;7.53;4.33;;;;;;;;;;5033638;28;20034;-70
2023/01/26 10:36:01;;;;;;;8.43;5.10;;;;;;;;;;5033695;28;20029;-70
2023/01/26 10:38:33;;;;;;;10.80;4.77;;;;;;;;;;5033539;28;20038;-70
2023/01/26 10:41:03;;;;;;;9.90;5.53;;;;;;;;;;5033348;28;20041;-70
2023/01/26 10:43:40;;;;;;;11.00;5.50;;;;;;;;;;5033125;28;20753;-70
2023/01/26 10:46:06;;;;;;;10.73;5.60;;;;;;;;;;5033016;28;20038;-70
2023/01/26 10:48:33;;;;;;;10.27;5.57;;;;;;;;;;5033509;28;20513;-70
2023/01/26 10:51:16;;;;;;;10.07;4.73;;;;;;;;;;5033237;28;20036;-70
2023/01/26 10:53:42;;;;;;;7.43;5.07;;;;;;;;;;5033224;28;20038;-71
2023/01/26 10:56:15;;;;;;;11.00;4.83;;;;;;;;;;5031985;28;20030;-70
2023/01/26 10:58:42;;;;;;;8.53;5.00;;;;;;;;;;5032176;28;20565;-70
2023/01/26 11:01:11;;;;;;;7.30;5.00;;;;;;;;;;5031944;28;20037;-70
2023/01/26 11:03:40;;;;;;;7.37;4.83;;;;;;;;;;5032594;28;20041;-70
2023/01/26 11:06:08;;;;;;;9.80;5.77;;;;;;;;;;5032082;28;20048;-70
2023/01/26 11:08:35;;;;;;;9.23;5.37;;;;;;;;;;5032133;28;20037;-70
2023/01/26 11:11:09;;;;;;;9.27;5.43;;;;;;;;;;5032100;28;20095;-69
2023/01/26 11:13:35;;;;;;;9.53;5.63;;;;;;;;;;5031387;28;20025;-70
2023/01/26 11:16:17;;;;;;;8.80;5.13;;;;;;;;;;5032089;28;20041;-69
2023/01/26 11:18:45;;;;;;;9.27;5.20;;;;;;;;;;5028632;28;20479;-68
2023/01/26 11:21:19;;;;;;;9.63;5.70;;;;;;;;;;5028661;28;20061;-70
2023/01/26 11:23:51;;;;;;;8.33;5.67;;;;;;;;;;5030418;28;20506;-69
2023/01/26 11:26:17;;;;;;;9.13;5.80;;;;;;;;;;5031722;28;20434;-69
2023/01/26 11:28:43;;;;;;;7.80;5.00;;;;;;;;;;5032663;28;20279;-74
2023/01/26 11:31:31;;;;;;;8.93;5.10;;;;;;;;;;5032686;28;20475;-69
2023/01/26 11:34:32;;;;;;;8.17;5.07;;;;;;;;;;5032365;28;20033;-71
2023/01/26 11:37:17;;;;;;;9.23;5.37;;;;;;;;;;5030390;28;20052;-69
2023/01/26 11:39:49;;;;;;;8.13;4.80;;;;;;;;;;5031918;28;20042;-71
2023/01/26 11:42:24;;;;;;;8.23;5.10;;;;;;;;;;5032471;28;20029;-70
2023/01/26 11:44:54;;;;;;;7.53;4.70;;;;;;;;;;5032231;28;20054;-69
2023/01/26 11:47:23;;;;;;;8.33;4.70;;;;;;;;;;5029613;28;20119;-69
2023/01/26 11:49:52;;;;;;;6.87;4.80;;;;;;;;;;5029188;28;20045;-69
2023/01/26 11:52:29;;;;;;;7.60;4.60;;;;;;;;;;5031419;28;20030;-69
2023/01/26 11:55:14;;;;;;;6.73;4.50;;;;;;;;;;5031371;28;20550;-69
2023/01/26 11:57:43;;;;;;;9.77;4.77;;;;;;;;;;5032314;28;20042;-69
2023/01/26 12:00:16;;;;;;;6.90;4.73;;;;;;;;;;5032335;28;20064;-69
2023/01/26 12:02:45;;;;;;;9.57;5.10;;;;;;;;;;5032529;28;20037;-69
2023/01/26 12:05:18;;;;;;;6.60;4.70;;;;;;;;;;5031903;28;20483;-69
2023/01/26 12:07:53;;;;;;;9.07;5.20;;;;;;;;;;5032137;28;20087;-69
2023/01/26 12:10:28;;;;;;;10.30;5.83;;;;;;;;;;5032146;28;20055;-69
2023/01/26 12:13:00;;;;;;;8.60;5.07;;;;;;;;;;5032211;28;20029;-69
2023/01/26 12:15:47;;;;;;;10.52;4.93;;;;;;;;;;5032308;28;20037;-69
2023/01/26 12:18:23;;;;;;;7.57;4.83;;;;;;;;;;5030642;28;20037;-68
2023/01/26 12:20:53;;;;;;;6.80;4.33;;;;;;;;;;5031972;28;20112;-68
2023/01/26 12:23:38;;;;;;;9.97;5.30;;;;;;;;;;5031990;28;20026;-68
2023/01/26 12:26:21;;;;;;;6.97;4.40;;;;;;;;;;5035950;28;20050;-69
2023/01/26 12:28:47;;;;;;;7.47;4.50;;;;;;;;;;5035733;28;20072;-69
2023/01/26 12:31:17;;;;;;;8.40;5.33;;;;;;;;;;5035394;28;20025;-67
2023/01/26 12:33:43;;;;;;;7.43;4.67;;;;;;;;;;5035894;28;20030;-69
2023/01/26 12:36:14;;;;;;;7.13;5.10;;;;;;;;;;5035720;28;20050;-68
2023/01/26 12:38:44;;;;;;;7.43;4.80;;;;;;;;;;5035475;28;20467;-69
2023/01/26 12:41:14;;;;;;;7.33;5.07;;;;;;;;;;5035539;28;20499;-69
2023/01/26 12:43:51;;;;;;;6.90;5.03;;;;;;;;;;5035565;28;20057;-69
2023/01/26 12:46:18;;;;;;;7.67;4.93;;;;;;;;;;5035545;28;20414;-69
2023/01/26 12:48:53;;;;;;;7.67;4.97;;;;;;;;;;5035464;28;20505;-68
2023/01/26 12:51:24;;;;;;;8.83;5.13;;;;;;;;;;5031970;28;20112;-68
2023/01/26 12:54:13;;;;;;;8.17;4.80;;;;;;;;;;5032649;28;20475;-68
2023/01/26 12:56:44;;;;;;;6.93;4.63;;;;;;;;;;5033791;28;20069;-68
2023/01/26 12:59:19;;;;;;;7.93;4.57;;;;;;;;;;5034967;28;20095;-68
2023/01/26 13:01:45;;;;;;;7.70;4.80;;;;;;;;;;5033308;28;20033;-69
2023/01/26 13:04:13;;;;;;;11.87;5.17;;;;;;;;;;5032404;28;20053;-70
2023/01/26 13:06:39;;;;;;;8.60;5.23;;;;;;;;;;5033303;28;20042;-70
2023/01/26 13:09:23;;;;;;;10.87;4.80;;;;;;;;;;5035067;28;20029;-72
2023/01/26 13:11:54;;;;;;;8.23;5.03;;;;;;;;;;5034367;28;20040;-69
2023/01/26 13:14:24;;;;;;;7.87;4.93;;;;;;;;;;5034611;28;20035;-69
2023/01/26 13:16:50;;;;;;;8.27;5.13;;;;;;;;;;5035191;28;20423;-69
2023/01/26 13:19:34;;;;;;;7.60;4.40;;;;;;;;;;5034996;28;20043;-68
2023/01/26 13:22:00;;;;;;;7.67;4.60;;;;;;;;;;5034547;28;20029;-68
2023/01/26 13:24:26;;;;;;;7.40;4.90;;;;;;;;;;5034477;28;20026;-68
2023/01/26 13:26:55;;;;;;;10.07;4.90;;;;;;;;;;5034604;28;20026;-68
2023/01/26 13:29:24;;;;;;;7.67;4.93;;;;;;;;;;5034864;28;20029;-68
2023/01/26 13:31:54;;;;;;;7.80;4.93;;;;;;;;;;5034521;28;20029;-68
2023/01/26 13:34:24;;;;;;;7.90;4.90;;;;;;;;;;5034541;28;20034;-68
2023/01/26 13:36:50;;;;;;;7.47;4.33;;;;;;;;;;5033496;28;20033;-68
2023/01/26 13:39:34;;;;;;;8.23;4.80;;;;;;;;;;5034470;28;20036;-68
2023/01/26 13:42:01;;;;;;;7.93;4.10;;;;;;;;;;5034046;28;20087;-68
2023/01/26 13:44:36;;;;;;;6.10;4.17;;;;;;;;;;5034262;28;20065;-68
2023/01/26 13:47:10;;;;;;;12.93;4.60;;;;;;;;;;5033953;28;20029;-68
2023/01/26 13:49:40;;;;;;;6.27;4.20;;;;;;;;;;5034452;28;20057;-69
2023/01/26 13:52:22;;;;;;;8.17;4.87;;;;;;;;;;5034216;28;20038;-68
2023/01/26 13:54:49;;;;;;;9.60;4.60;;;;;;;;;;5034049;28;20487;-68
2023/01/26 13:57:25;;;;;;;7.57;4.23;;;;;;;;;;5034120;28;20040;-68
2023/01/26 13:59:53;;;;;;;6.20;4.10;;;;;;;;;;5035374;28;20045;-68
2023/01/26 14:02:27;;;;;;;11.57;4.07;;;;;;;;;;5053506;28;20040;-69
2023/01/26 14:04:54;;;;;;;5.97;4.27;;;;;;;;;;5053788;28;20045;-68
2023/01/26 14:07:23;;;;;;;7.20;4.30;;;;;;;;;;5053878;28;20021;-68
2023/01/26 14:09:50;;;;;;;8.50;4.20;;;;;;;;;;5053799;28;20083;-68
2023/01/26 14:12:29;;;;;;;9.60;4.50;;;;;;;;;;5053748;28;20555;-68
2023/01/26 14:14:56;;;;;;;9.43;5.17;;;;;;;;;;5053892;28;20059;-68
2023/01/26 14:17:27;;;;;;;5.70;4.00;;;;;;;;;;5053538;28;20033;-69
2023/01/26 14:19:54;;;;;;;6.20;4.27;;;;;;;;;;5053441;28;20029;-68
2023/01/26 14:22:20;;;;;;;6.70;4.40;;;;;;;;;;5053574;28;20044;-68
2023/01/26 14:24:50;;;;;;;6.23;4.27;;;;;;;;;;5053516;28;20045;-68
2023/01/26 14:27:31;;;;;;;9.10;4.20;;;;;;;;;;5053556;28;20537;-68
2023/01/26 14:29:57;;;;;;;12.60;4.63;;;;;;;;;;5053501;28;20067;-68
2023/01/26 14:32:24;;;;;;;6.80;4.63;;;;;;;;;;5053308;28;20033;-67
2023/01/26 14:34:52;;;;;;;6.83;4.70;;;;;;;;;;5053348;28;20043;-68
2023/01/26 14:37:18;;;;;;;7.47;4.60;;;;;;;;;;5053274;28;20159;-68
2023/01/26 14:39:46;;;;;;;6.60;4.50;;;;;;;;;;5052961;28;20622;-68
2023/01/26 14:42:17;;;;;;;7.87;4.70;;;;;;;;;;5053154;28;20045;-68
2023/01/26 14:44:43;;;;;;;9.07;4.97;;;;;;;;;;5053062;28;20037;-69
2023/01/26 14:47:09;;;;;;;7.37;4.20;;;;;;;;;;5053005;28;20227;-68
2023/01/26 14:49:47;;;;;;;9.33;4.57;;;;;;;;;;5052503;28;20185;-68
2023/01/26 14:52:16;;;;;;;6.93;4.67;;;;;;;;;;5053078;28;20112;-68
2023/01/26 14:54:43;;;;;;;11.23;4.60;;;;;;;;;;5052816;28;20479;-69
2023/01/26 14:57:16;;;;;;;7.83;4.07;;;;;;;;;;5052905;28;20029;-67
2023/01/26 14:59:42;;;;;;;9.43;4.30;;;;;;;;;;5052754;28;20120;-68
2023/01/26 15:02:35;;;;;;;7.37;4.87;;;;;;;;;;5052222;28;20087;-68
2023/01/26 15:05:02;;;;;;;8.77;5.10;;;;;;;;;;5052504;28;20041;-68
2023/01/26 15:07:28;;;;;;;7.57;4.80;;;;;;;;;;5052439;28;20040;-68
2023/01/26 15:09:54;;;;;;;10.37;5.20;;;;;;;;;;5052106;28;20487;-68
2023/01/26 15:12:20;;;;;;;8.43;5.37;;;;;;;;;;5052586;28;20029;-68
2023/01/26 15:14:49;;;;;;;7.87;5.17;;;;;;;;;;5052004;28;20029;-68
2023/01/26 15:17:34;;;;;;;8.73;5.20;;;;;;;;;;5052291;28;20502;-68
2023/01/26 15:20:00;;;;;;;8.13;5.50;;;;;;;;;;5052654;28;20032;-68
2023/01/26 15:22:27;;;;;;;7.73;5.33;;;;;;;;;;5052557;28;20387;-67